createdAt,value
2023-10-09T00:02:11.855Z,13.00
2023-10-09T00:04:42.847Z,13.00
2023-10-09T00:07:11.004Z,13.00
2023-10-09T00:09:51.953Z,13.00
2023-10-09T00:12:29.259Z,12.70
2023-10-09T00:15:09.766Z,12.90
2023-10-09T00:17:39.217Z,12.90
2023-10-09T00:20:18.899Z,12.80
2023-10-09T00:22:47.676Z,13.00
2023-10-09T00:25:23.280Z,13.00
2023-10-09T00:27:50.158Z,13.00
2023-10-09T00:30:23.021Z,13.00
2023-10-09T00:33:02.522Z,13.10
2023-10-09T00:35:42.961Z,13.00
2023-10-09T00:38:22.088Z,13.10
2023-10-09T00:41:11.402Z,13.20
2023-10-09T00:43:39.546Z,13.10
2023-10-09T00:46:38.248Z,13.10
2023-10-09T00:49:11.290Z,13.20
2023-10-09T00:51:57.542Z,13.20
2023-10-09T00:54:28.990Z,13.20
2023-10-09T00:57:00.114Z,13.20
2023-10-09T00:59:27.390Z,13.20
2023-10-09T01:02:05.508Z,13.20
2023-10-09T01:04:38.297Z,13.20
2023-10-09T01:07:17.321Z,13.20
2023-10-09T01:09:50.758Z,13.20
2023-10-09T01:12:20.304Z,13.20
2023-10-09T01:14:56.647Z,13.20
2023-10-09T01:17:46.588Z,13.20
2023-10-09T01:20:18.293Z,13.10
2023-10-09T01:22:45.124Z,13.10
2023-10-09T01:25:12.248Z,13.00
2023-10-09T01:27:41.442Z,13.00
2023-10-09T01:30:14.969Z,13.00
2023-10-09T01:32:42.026Z,13.10
2023-10-09T01:35:24.561Z,13.20
2023-10-09T01:37:52.583Z,13.00
2023-10-09T01:40:37.009Z,13.00
2023-10-09T01:43:05.222Z,13.00
2023-10-09T01:45:43.276Z,13.10
2023-10-09T01:48:12.032Z,13.10
2023-10-09T01:50:42.949Z,13.10
2023-10-09T01:53:10.009Z,13.30
2023-10-09T01:55:46.752Z,13.10
2023-10-09T01:58:22.966Z,13.00
2023-10-09T02:00:54.910Z,13.20
2023-10-09T02:03:25.882Z,13.00
2023-10-09T02:06:01.072Z,13.10
2023-10-09T02:08:37.054Z,13.20
2023-10-09T02:11:04.480Z,13.10
2023-10-09T02:13:32.863Z,13.10
2023-10-09T02:16:15.141Z,13.10
2023-10-09T02:18:54.054Z,13.20
2023-10-09T02:21:41.606Z,13.10
2023-10-09T02:24:27.817Z,13.10
2023-10-09T02:26:54.869Z,13.20
2023-10-09T02:29:25.005Z,13.20
2023-10-09T02:32:01.851Z,13.40
2023-10-09T02:34:29.530Z,13.30
2023-10-09T02:36:59.306Z,13.40
2023-10-09T02:39:30.266Z,13.30
2023-10-09T02:42:16.403Z,13.50
2023-10-09T02:44:51.048Z,13.60
2023-10-09T02:47:21.660Z,13.70
2023-10-09T02:49:49.537Z,13.70
2023-10-09T02:52:20.545Z,13.80
2023-10-09T02:54:53.945Z,13.70
2023-10-09T02:57:24.592Z,13.80
2023-10-09T02:59:52.760Z,13.80
2023-10-09T03:02:20.948Z,13.80
2023-10-09T03:04:47.926Z,13.80
2023-10-09T03:07:15.355Z,13.90
2023-10-09T03:09:42.299Z,13.80
2023-10-09T03:12:13.161Z,13.90
2023-10-09T03:14:42.801Z,13.70
2023-10-09T03:17:12.768Z,13.70
2023-10-09T03:19:40.687Z,13.70
2023-10-09T03:22:12.161Z,13.70
2023-10-09T03:24:51.558Z,13.70
2023-10-09T03:27:19.378Z,13.70
2023-10-09T03:29:51.148Z,13.70
2023-10-09T03:32:18.273Z,13.70
2023-10-09T03:34:45.129Z,13.70
2023-10-09T03:37:23.580Z,13.70
2023-10-09T03:39:56.324Z,13.70
2023-10-09T03:42:23.922Z,13.60
2023-10-09T03:44:54.512Z,13.70
2023-10-09T03:47:23.881Z,13.60
2023-10-09T03:49:54.781Z,13.70
2023-10-09T03:52:26.504Z,13.80
2023-10-09T03:54:53.617Z,13.90
2023-10-09T03:57:20.879Z,13.70
2023-10-09T03:59:48.111Z,13.80
2023-10-09T04:02:18.123Z,13.80
2023-10-09T04:04:49.297Z,13.80
2023-10-09T04:07:19.533Z,13.80
2023-10-09T04:09:49.391Z,13.90
2023-10-09T04:12:26.866Z,13.80
2023-10-09T04:14:58.626Z,13.70
2023-10-09T04:17:25.861Z,13.70
2023-10-09T04:20:11.225Z,13.80
2023-10-09T04:22:51.780Z,13.70
2023-10-09T04:25:29.961Z,13.80
2023-10-09T04:28:10.419Z,13.90
2023-10-09T04:30:41.855Z,13.70
2023-10-09T04:33:27.808Z,13.70
2023-10-09T04:36:19.587Z,13.90
2023-10-09T04:39:05.828Z,13.70
2023-10-09T04:41:53.163Z,13.70
2023-10-09T04:44:24.013Z,13.70
2023-10-09T04:47:13.054Z,13.70
2023-10-09T04:50:03.549Z,13.70
2023-10-09T04:52:30.548Z,13.70
2023-10-09T04:55:10.367Z,13.70
2023-10-09T04:57:45.293Z,13.80
2023-10-09T05:00:29.384Z,13.80
2023-10-09T05:03:07.426Z,13.70
2023-10-09T05:05:44.774Z,13.60
2023-10-09T05:08:29.981Z,13.70
2023-10-09T05:11:04.033Z,13.70
2023-10-09T05:13:42.460Z,13.60
2023-10-09T05:16:20.155Z,13.70
2023-10-09T05:18:58.914Z,13.70
2023-10-09T05:21:43.081Z,13.70
2023-10-09T05:24:13.114Z,13.70
2023-10-09T05:26:50.786Z,13.80
2023-10-09T05:29:33.654Z,13.70
2023-10-09T05:32:29.083Z,13.70
2023-10-09T05:35:01.684Z,13.70
2023-10-09T05:37:34.211Z,13.70
2023-10-09T05:40:03.576Z,13.70
2023-10-09T05:42:43.503Z,13.70
2023-10-09T05:45:18.337Z,13.70
2023-10-09T05:48:06.487Z,13.70
2023-10-09T05:50:38.833Z,13.70
2023-10-09T05:53:28.606Z,13.80
2023-10-09T05:56:13.874Z,13.80
2023-10-09T05:58:58.915Z,13.90
2023-10-09T06:01:44.157Z,13.90
2023-10-09T06:04:17.250Z,14.00
2023-10-09T06:06:56.794Z,13.90
2023-10-09T06:09:23.890Z,13.90
2023-10-09T06:11:56.432Z,13.90
2023-10-09T06:14:30.710Z,14.00
2023-10-09T06:16:58.550Z,14.00
2023-10-09T06:19:29.800Z,14.10
2023-10-09T06:22:13.031Z,14.00
2023-10-09T06:24:43.662Z,14.00
2023-10-09T06:27:11.791Z,14.10
2023-10-09T06:29:51.662Z,14.10
2023-10-09T06:32:19.664Z,14.10
2023-10-09T06:35:17.976Z,14.00
2023-10-09T06:38:05.089Z,14.10
2023-10-09T06:40:52.742Z,14.20
2023-10-09T06:43:23.827Z,14.20
2023-10-09T06:46:10.128Z,14.30
2023-10-09T06:48:39.766Z,14.20
2023-10-09T06:51:30.967Z,14.20
2023-10-09T06:54:05.732Z,14.20
2023-10-09T06:56:32.792Z,14.20
2023-10-09T06:59:21.700Z,14.20
2023-10-09T07:02:09.530Z,14.20
2023-10-09T07:04:37.137Z,14.30
2023-10-09T07:07:11.033Z,14.30
2023-10-09T07:09:43.958Z,14.30
2023-10-09T07:12:15.844Z,14.40
2023-10-09T07:15:02.603Z,14.40
2023-10-09T07:17:35.356Z,14.40
2023-10-09T07:20:14.855Z,14.50
2023-10-09T07:22:54.305Z,14.40
2023-10-09T07:25:42.104Z,14.40
2023-10-09T07:28:29.953Z,14.40
2023-10-09T07:30:59.239Z,14.40
2023-10-09T07:33:34.912Z,14.40
2023-10-09T07:36:09.259Z,14.20
2023-10-09T07:38:38.947Z,14.40
2023-10-09T07:41:08.601Z,14.40
2023-10-09T07:43:40.221Z,14.40
2023-10-09T07:46:26.732Z,14.40
2023-10-09T07:48:53.879Z,14.30
2023-10-09T07:51:24.422Z,14.40
2023-10-09T07:53:58.313Z,14.40
2023-10-09T07:56:25.755Z,14.40
2023-10-09T07:58:53.164Z,14.50
2023-10-09T08:01:38.173Z,14.50
2023-10-09T08:04:21.541Z,14.50
2023-10-09T08:07:05.484Z,14.50
2023-10-09T08:09:48.357Z,14.60
2023-10-09T08:12:36.585Z,14.60
2023-10-09T08:15:20.192Z,14.60
2023-10-09T08:17:55.319Z,14.70
2023-10-09T08:20:37.426Z,14.80
2023-10-09T08:23:06.245Z,14.80
2023-10-09T08:25:33.412Z,14.80
2023-10-09T08:28:20.362Z,14.70
2023-10-09T08:30:55.851Z,14.90
2023-10-09T08:36:06.438Z,14.90
2023-10-09T08:38:37.208Z,14.90
2023-10-09T08:41:18.590Z,14.90
2023-10-09T08:43:52.263Z,15.00
2023-10-09T08:46:24.052Z,15.00
2023-10-09T08:48:51.711Z,15.00
2023-10-09T08:51:21.143Z,15.10
2023-10-09T08:53:48.278Z,15.10
2023-10-09T08:56:23.233Z,15.10
2023-10-09T08:58:55.364Z,15.10
2023-10-09T09:01:23.124Z,15.20
2023-10-09T09:03:51.645Z,15.20
2023-10-09T09:06:22.059Z,15.20
2023-10-09T09:08:48.949Z,15.20
2023-10-09T09:11:18.970Z,15.20
2023-10-09T09:13:50.711Z,15.20
2023-10-09T09:16:19.081Z,15.20
2023-10-09T09:19:19.816Z,15.20
2023-10-09T09:22:11.536Z,15.20
2023-10-09T09:24:38.723Z,15.10
2023-10-09T09:27:22.042Z,15.10
2023-10-09T09:29:54.877Z,15.10
2023-10-09T09:32:36.893Z,15.10
2023-10-09T09:35:05.701Z,15.10
2023-10-09T09:37:43.540Z,15.10
2023-10-09T09:40:31.393Z,15.10
2023-10-09T09:43:07.098Z,15.20
2023-10-09T09:45:38.389Z,15.20
2023-10-09T09:48:07.381Z,15.20
2023-10-09T09:50:38.209Z,15.20
2023-10-09T09:53:09.420Z,15.30
2023-10-09T09:55:43.223Z,15.40
2023-10-09T09:58:19.959Z,15.50
2023-10-09T10:00:53.906Z,15.50
2023-10-09T10:03:35.822Z,15.60
2023-10-09T10:06:11.226Z,15.60
2023-10-09T10:08:40.323Z,15.60
2023-10-09T10:11:15.366Z,15.60
2023-10-09T10:13:42.388Z,15.60
2023-10-09T10:16:15.263Z,15.70
2023-10-09T10:19:12.907Z,15.70
2023-10-09T10:21:41.824Z,15.70
2023-10-09T10:24:31.775Z,15.60
2023-10-09T10:27:25.262Z,15.70
2023-10-09T10:30:12.336Z,15.80
2023-10-09T10:33:23.691Z,16.00
2023-10-09T10:35:53.415Z,16.10
2023-10-09T10:38:38.187Z,16.10
2023-10-09T10:41:18.975Z,16.10
2023-10-09T10:43:55.354Z,16.10
2023-10-09T10:46:25.827Z,16.00
2023-10-09T10:49:00.862Z,15.90
2023-10-09T10:51:39.285Z,15.80
2023-10-09T10:54:26.314Z,15.80
2023-10-09T10:56:53.290Z,15.80
2023-10-09T10:59:30.361Z,15.80
2023-10-09T11:02:03.877Z,15.70
2023-10-09T11:04:31.321Z,15.70
2023-10-09T11:07:13.844Z,15.70
2023-10-09T11:09:58.688Z,15.70
2023-10-09T11:12:39.181Z,15.70
2023-10-09T11:15:08.827Z,15.60
2023-10-09T11:17:41.971Z,15.60
2023-10-09T11:20:26.208Z,15.60
2023-10-09T11:23:14.412Z,15.60
2023-10-09T11:25:52.041Z,15.60
2023-10-09T11:28:31.296Z,15.60
2023-10-09T11:31:12.347Z,15.60
2023-10-09T11:33:52.487Z,15.70
2023-10-09T11:36:33.849Z,15.80
2023-10-09T11:39:14.648Z,15.80
2023-10-09T11:41:45.544Z,15.80
2023-10-09T11:44:34.970Z,15.90
2023-10-09T11:47:17.668Z,15.90
2023-10-09T11:50:04.743Z,15.90
2023-10-09T11:52:36.832Z,16.00
2023-10-09T11:55:07.837Z,16.00
2023-10-09T11:57:36.177Z,16.00
2023-10-09T12:00:37.609Z,16.00
2023-10-09T12:03:07.183Z,16.10
2023-10-09T12:05:35.007Z,16.20
2023-10-09T12:08:03.288Z,16.20
2023-10-09T12:10:31.065Z,16.20
2023-10-09T12:13:00.902Z,16.20
2023-10-09T12:15:38.183Z,16.20
2023-10-09T12:18:12.936Z,16.20
2023-10-09T12:20:40.295Z,16.20
2023-10-09T12:23:07.286Z,16.20
2023-10-09T12:25:36.308Z,16.20
2023-10-09T12:28:03.913Z,16.20
2023-10-09T12:30:31.288Z,16.20
2023-10-09T12:32:59.441Z,16.20
2023-10-09T12:35:27.289Z,16.20
2023-10-09T12:37:55.741Z,16.20
2023-10-09T12:40:30.377Z,16.40
2023-10-09T12:43:00.282Z,16.40
2023-10-09T12:45:27.868Z,16.40
2023-10-09T12:48:00.586Z,16.40
2023-10-09T12:50:30.761Z,16.40
2023-10-09T12:53:07.896Z,16.40
2023-10-09T12:55:41.597Z,16.50
2023-10-09T12:58:10.216Z,16.60
2023-10-09T13:00:49.862Z,16.60
2023-10-09T13:03:18.189Z,16.60
2023-10-09T13:05:54.446Z,16.70
2023-10-09T13:08:22.530Z,16.70
2023-10-09T13:11:02.369Z,16.70
2023-10-09T13:13:47.853Z,16.70
2023-10-09T13:16:26.290Z,16.70
2023-10-09T13:19:00.566Z,16.70
2023-10-09T13:21:32.853Z,16.80
2023-10-09T13:24:01.501Z,16.70
2023-10-09T13:26:34.379Z,16.70
2023-10-09T13:29:03.913Z,16.80
2023-10-09T13:31:35.247Z,16.80
2023-10-09T13:34:07.428Z,16.80
2023-10-09T13:36:35.414Z,16.90
2023-10-09T13:39:20.909Z,16.80
2023-10-09T13:41:49.188Z,16.80
2023-10-09T13:44:17.151Z,16.80
2023-10-09T13:46:44.307Z,16.80
2023-10-09T13:49:15.411Z,16.90
2023-10-09T13:51:46.071Z,16.80
2023-10-09T13:54:21.996Z,16.90
2023-10-09T13:56:54.096Z,17.00
2023-10-09T13:59:26.542Z,17.00
2023-10-09T14:01:57.796Z,17.10
2023-10-09T14:04:25.422Z,17.10
2023-10-09T14:06:58.314Z,17.10
2023-10-09T14:09:29.701Z,17.10
2023-10-09T14:12:07.958Z,17.10
2023-10-09T14:14:48.641Z,17.20
2023-10-09T14:17:20.638Z,17.10
2023-10-09T14:19:54.753Z,17.10
2023-10-09T14:22:27.777Z,17.10
2023-10-09T14:24:59.091Z,17.10
2023-10-09T14:27:28.356Z,17.10
2023-10-09T14:30:02.571Z,17.10
2023-10-09T14:32:38.788Z,17.10
2023-10-09T14:35:14.317Z,17.10
2023-10-09T14:37:42.723Z,17.20
2023-10-09T14:40:22.316Z,17.20
2023-10-09T14:42:56.801Z,17.20
2023-10-09T14:45:28.158Z,17.20
2023-10-09T14:47:56.029Z,17.20
2023-10-09T14:50:23.643Z,17.10
2023-10-09T14:52:52.064Z,17.30
2023-10-09T14:55:22.162Z,17.10
2023-10-09T14:57:51.262Z,17.10
2023-10-09T15:00:24.066Z,17.10
2023-10-09T15:02:54.250Z,17.10
2023-10-09T15:05:23.843Z,17.10
2023-10-09T15:07:51.579Z,17.00
2023-10-09T15:10:19.518Z,17.00
2023-10-09T15:12:49.736Z,17.00
2023-10-09T15:15:16.985Z,17.00
2023-10-09T15:17:45.496Z,16.90
2023-10-09T15:20:15.990Z,16.90
2023-10-09T15:22:47.249Z,16.90
2023-10-09T15:25:16.059Z,16.90
2023-10-09T15:27:44.490Z,17.00
2023-10-09T15:30:15.191Z,17.00
2023-10-09T15:32:43.009Z,17.00
2023-10-09T15:35:11.296Z,17.00
2023-10-09T15:37:38.951Z,17.00
2023-10-09T15:40:15.889Z,16.90
2023-10-09T15:42:51.460Z,16.90
2023-10-09T15:45:23.108Z,16.90
2023-10-09T15:47:52.414Z,16.90
2023-10-09T15:50:20.438Z,16.90
2023-10-09T15:52:50.611Z,16.90
2023-10-09T15:55:21.839Z,16.80
2023-10-09T15:57:53.718Z,16.80
2023-10-09T16:00:29.870Z,16.80
2023-10-09T16:02:57.786Z,16.80
2023-10-09T16:05:27.264Z,16.80
2023-10-09T16:07:55.924Z,16.80
2023-10-09T16:10:23.432Z,16.70
2023-10-09T16:12:52.720Z,16.70
2023-10-09T16:15:20.321Z,16.70
2023-10-09T16:17:59.674Z,16.70
2023-10-09T16:20:27.658Z,16.70
2023-10-09T16:22:57.429Z,16.70
2023-10-09T16:25:27.883Z,16.70
2023-10-09T16:27:57.260Z,16.60
2023-10-09T16:30:24.523Z,16.70
2023-10-09T16:32:52.476Z,16.70
2023-10-09T16:35:23.609Z,16.60
2023-10-09T16:37:51.233Z,16.60
2023-10-09T16:40:22.017Z,16.60
2023-10-09T16:42:54.766Z,16.60
2023-10-09T16:45:22.248Z,16.60
2023-10-09T16:47:52.334Z,16.60
2023-10-09T16:50:20.781Z,16.60
2023-10-09T16:52:48.403Z,16.60
2023-10-09T16:55:16.204Z,16.50
2023-10-09T16:57:44.765Z,16.50
2023-10-09T17:00:29.678Z,16.50
2023-10-09T17:02:58.506Z,16.50
2023-10-09T17:05:29.750Z,16.50
2023-10-09T17:07:57.281Z,16.40
2023-10-09T17:10:28.654Z,16.40
2023-10-09T17:12:56.509Z,16.50
2023-10-09T17:15:30.605Z,16.40
2023-10-09T17:17:57.810Z,16.40
2023-10-09T17:20:28.515Z,16.40
2023-10-09T17:23:01.680Z,16.40
2023-10-09T17:25:32.468Z,16.40
2023-10-09T17:28:01.345Z,16.40
2023-10-09T17:30:28.723Z,16.40
2023-10-09T17:32:55.897Z,16.40
2023-10-09T17:35:22.969Z,16.40
2023-10-09T17:37:49.876Z,16.40
2023-10-09T17:40:19.606Z,16.40
2023-10-09T17:42:46.789Z,16.30
2023-10-09T17:45:23.212Z,16.30
2023-10-09T17:47:53.422Z,16.30
2023-10-09T17:50:23.163Z,16.20
2023-10-09T17:52:50.406Z,16.20
2023-10-09T17:55:19.156Z,16.20
2023-10-09T17:57:46.540Z,16.20
2023-10-09T18:00:23.600Z,16.20
2023-10-09T18:02:53.339Z,16.20
2023-10-09T18:05:21.231Z,16.20
2023-10-09T18:07:51.022Z,16.10
2023-10-09T18:10:18.061Z,16.10
2023-10-09T18:12:45.012Z,16.10
2023-10-09T18:15:14.639Z,16.10
2023-10-09T18:17:41.901Z,16.10
2023-10-09T18:20:09.762Z,16.00
2023-10-09T18:22:36.857Z,16.00
2023-10-09T18:25:05.040Z,16.00
2023-10-09T18:27:32.057Z,16.00
2023-10-09T18:29:59.073Z,16.00
2023-10-09T18:32:26.403Z,16.00
2023-10-09T18:34:54.593Z,16.00
2023-10-09T18:37:22.768Z,15.90
2023-10-09T18:39:50.773Z,15.90
2023-10-09T18:42:17.867Z,15.90
2023-10-09T18:44:45.320Z,15.90
2023-10-09T18:47:20.761Z,15.90
2023-10-09T18:49:51.712Z,15.90
2023-10-09T18:52:19.181Z,15.90
2023-10-09T18:54:46.718Z,15.80
2023-10-09T18:57:14.279Z,15.80
2023-10-09T18:59:43.972Z,15.80
2023-10-09T19:02:13.116Z,15.80
2023-10-09T19:04:40.368Z,15.80
2023-10-09T19:07:07.333Z,15.80
2023-10-09T19:09:34.564Z,15.80
2023-10-09T19:12:01.906Z,15.80
2023-10-09T19:14:30.337Z,15.80
2023-10-09T19:17:01.242Z,15.80
2023-10-09T19:19:28.728Z,15.80
2023-10-09T19:21:56.081Z,15.80
2023-10-09T19:24:23.369Z,15.80
2023-10-09T19:26:50.561Z,15.80
2023-10-09T19:29:17.818Z,15.80
2023-10-09T19:31:45.470Z,15.80
2023-10-09T19:34:14.864Z,15.80
2023-10-09T19:36:47.579Z,15.80
2023-10-09T19:39:18.699Z,15.80
2023-10-09T19:41:46.003Z,15.80
2023-10-09T19:44:13.327Z,15.70
2023-10-09T19:46:40.996Z,15.70
2023-10-09T19:49:10.141Z,15.70
2023-10-09T19:51:37.334Z,15.80
2023-10-09T19:54:05.214Z,15.70
2023-10-09T19:56:33.165Z,15.80
2023-10-09T19:59:00.316Z,15.80
2023-10-09T20:01:28.830Z,15.70
2023-10-09T20:03:56.023Z,15.70
2023-10-09T20:06:22.972Z,15.70
2023-10-09T20:08:49.801Z,15.70
2023-10-09T20:11:16.939Z,15.70
2023-10-09T20:13:50.947Z,15.70
2023-10-09T20:16:18.254Z,15.70
2023-10-09T20:18:45.413Z,15.70
2023-10-09T20:21:13.236Z,15.70
2023-10-09T20:23:41.708Z,15.70
2023-10-09T20:26:12.907Z,15.70
2023-10-09T20:28:40.343Z,15.70
2023-10-09T20:31:07.586Z,15.70
2023-10-09T20:33:34.877Z,15.70
2023-10-09T20:36:32.628Z,15.70
2023-10-09T20:38:59.498Z,15.70
2023-10-09T20:41:28.994Z,15.60
2023-10-09T20:43:56.186Z,15.60
2023-10-09T20:46:25.640Z,15.60
2023-10-09T20:48:53.024Z,15.60
2023-10-09T20:51:20.165Z,15.60
2023-10-09T20:53:47.399Z,15.60
2023-10-09T20:56:14.716Z,15.60
2023-10-09T20:58:42.862Z,15.60
2023-10-09T21:01:17.734Z,15.60
2023-10-09T21:03:50.627Z,15.60
2023-10-09T21:06:22.126Z,15.50
2023-10-09T21:08:50.652Z,15.50
2023-10-09T21:11:18.525Z,15.50
2023-10-09T21:13:46.775Z,15.50
2023-10-09T21:16:15.457Z,15.50
2023-10-09T21:18:46.882Z,15.60
2023-10-09T21:21:15.774Z,15.50
2023-10-09T21:23:43.812Z,15.50
2023-10-09T21:26:21.375Z,15.50
2023-10-09T21:28:49.673Z,15.40
2023-10-09T21:31:18.048Z,15.40
2023-10-09T21:33:45.957Z,15.40
2023-10-09T21:36:14.055Z,15.40
2023-10-09T21:38:41.251Z,15.40
2023-10-09T21:41:18.628Z,15.40
2023-10-09T21:43:46.591Z,15.40
2023-10-09T21:46:16.308Z,15.40
2023-10-09T21:48:44.154Z,15.40
2023-10-09T21:51:12.651Z,15.40
2023-10-09T21:53:40.927Z,15.40
2023-10-09T21:56:11.076Z,15.40
2023-10-09T21:58:38.294Z,15.40
2023-10-09T22:01:09.110Z,15.40
2023-10-09T22:03:37.480Z,15.40
2023-10-09T22:06:05.937Z,15.40
2023-10-09T22:08:34.666Z,15.40
2023-10-09T22:11:03.076Z,15.40
2023-10-09T22:13:30.334Z,15.40
2023-10-09T22:15:58.958Z,15.40
2023-10-09T22:18:26.920Z,15.40
2023-10-09T22:21:05.766Z,15.40
2023-10-09T22:23:33.825Z,15.40
2023-10-09T22:26:02.019Z,15.40
2023-10-09T22:28:30.666Z,15.40
2023-10-09T22:31:02.855Z,15.30
2023-10-09T22:33:46.734Z,15.40
2023-10-09T22:36:52.967Z,15.40
2023-10-09T22:39:33.772Z,15.50
2023-10-09T22:42:01.998Z,15.30
2023-10-09T22:44:33.954Z,15.30
2023-10-09T22:47:10.562Z,15.30
2023-10-09T22:49:42.656Z,15.30
2023-10-09T22:52:12.660Z,15.30
2023-10-09T22:54:42.973Z,15.30
2023-10-09T22:57:11.107Z,15.30
2023-10-09T22:59:51.248Z,15.30
2023-10-09T23:02:44.495Z,15.30
2023-10-09T23:05:13.904Z,15.20
2023-10-09T23:07:42.658Z,15.30
2023-10-09T23:10:16.314Z,15.10
2023-10-09T23:12:49.844Z,15.20
2023-10-09T23:15:36.612Z,15.20
2023-10-09T23:18:22.551Z,15.20
2023-10-09T23:20:51.542Z,15.20
2023-10-09T23:23:26.100Z,15.20
2023-10-09T23:26:06.660Z,15.20
2023-10-09T23:28:39.664Z,15.20
2023-10-09T23:31:23.514Z,15.10
2023-10-09T23:33:58.065Z,15.20
2023-10-09T23:36:28.626Z,15.10
2023-10-09T23:39:11.708Z,15.20
2023-10-09T23:41:40.160Z,15.20
2023-10-09T23:44:10.384Z,15.10
2023-10-09T23:46:38.076Z,15.10
2023-10-09T23:49:10.312Z,15.00
2023-10-09T23:51:41.174Z,15.10
2023-10-09T23:54:12.027Z,15.00
2023-10-09T23:56:58.243Z,15.10
2023-10-09T23:59:39.390Z,15.00
